Time;durP1;ratioP1;P1;durP2;ratioP2;P2;SDS_P1;SDS_P2;PMS_P1;PMS_P2;Temp;Humidity;BMP_temperature;BMP_pressure;BME280_temperature;BME280_humidity;BME280_pressure;Samples;Min_cycle;Max_cycle;Signal;HPM_P1;HPM_P2
2022/12/16 00:01:35;;;;;;;152.80;49.50;;;;;;;-9.01;100.00;100749.50;4943215;28;20397;-78
2022/12/16 00:04:01;;;;;;;144.68;48.40;;;;;;;-8.97;100.00;100744.44;4944467;28;20036;-78
2022/12/16 00:06:51;;;;;;;139.27;46.80;;;;;;;-9.03;100.00;100738.66;4952157;28;20054;-79
2022/12/16 00:09:17;;;;;;;147.77;49.08;;;;;;;-9.06;100.00;100743.78;4943344;28;20558;-77
2022/12/16 00:11:42;;;;;;;144.80;47.35;;;;;;;-9.09;100.00;100746.34;4944150;28;20138;-78
2022/12/16 00:14:08;;;;;;;135.88;46.97;;;;;;;-9.09;100.00;100748.84;4923850;28;20043;-78
2022/12/16 00:16:33;;;;;;;135.10;47.42;;;;;;;-9.09;100.00;100753.88;4943526;28;20027;-77
2022/12/16 00:19:02;;;;;;;128.70;46.42;;;;;;;-9.12;100.00;100750.59;4948334;28;20420;-78
2022/12/16 00:21:28;;;;;;;139.77;47.70;;;;;;;-9.13;100.00;100749.78;4945955;28;20932;-78
2022/12/16 00:23:55;;;;;;;133.27;43.83;;;;;;;-9.10;100.00;100751.41;4963023;28;20073;-78
2022/12/16 00:26:21;;;;;;;134.90;46.63;;;;;;;-9.09;100.00;100748.84;4935642;28;20511;-77
2022/12/16 00:28:47;;;;;;;146.68;48.92;;;;;;;-9.06;100.00;100755.50;4947714;28;20044;-79
2022/12/16 00:31:12;;;;;;;133.85;46.88;;;;;;;-9.02;100.00;100749.56;4952180;28;20027;-79
2022/12/16 00:33:38;;;;;;;143.38;49.88;;;;;;;-9.02;100.00;100752.91;4949544;28;20408;-77
2022/12/16 00:36:03;;;;;;;146.88;48.15;;;;;;;-9.00;100.00;100747.84;4948478;28;20447;-79
2022/12/16 00:38:54;;;;;;;133.18;45.88;;;;;;;-9.03;100.00;100748.72;4953427;28;20134;-79
2022/12/16 00:41:20;;;;;;;128.27;46.70;;;;;;;-9.05;100.00;100759.69;4952514;28;20039;-78
2022/12/16 00:44:10;;;;;;;139.15;47.90;;;;;;;-9.07;100.00;100763.91;4944745;28;20046;-78
2022/12/16 00:47:01;;;;;;;128.25;45.90;;;;;;;-9.07;100.00;100763.91;4948779;28;20050;-78
2022/12/16 00:49:51;;;;;;;125.93;41.85;;;;;;;-9.09;100.00;100768.13;4944390;28;20071;-79
2022/12/16 00:52:17;;;;;;;135.90;44.45;;;;;;;-9.11;100.00;100769.88;4947452;28;20039;-77
2022/12/16 00:54:42;;;;;;;151.50;48.33;;;;;;;-9.12;100.00;100765.69;4976179;28;20058;-77
2022/12/16 00:57:08;;;;;;;151.77;48.83;;;;;;;-9.12;100.00;100770.72;4941785;28;20476;-78
2022/12/16 00:59:33;;;;;;;142.10;46.10;;;;;;;-9.14;100.00;100762.38;4974740;28;20047;-78
2022/12/16 01:01:59;;;;;;;130.57;47.42;;;;;;;-9.15;100.00;100759.03;4927172;28;20564;-77
2022/12/16 01:04:25;;;;;;;139.73;47.40;;;;;;;-9.15;100.00;100760.72;4946231;28;20036;-78
2022/12/16 01:06:51;;;;;;;120.97;45.88;;;;;;;-9.15;100.00;100765.72;4967743;28;20071;-78
2022/12/16 01:09:16;;;;;;;139.40;47.40;;;;;;;-9.13;100.00;100769.88;4962009;28;20040;-77
2022/12/16 01:11:42;;;;;;;134.48;45.88;;;;;;;-9.18;100.00;100764.13;4951352;28;20027;-78
2022/12/16 01:14:07;;;;;;;120.20;44.47;;;;;;;-9.20;100.00;100771.69;4977617;28;20039;-78
2022/12/16 01:16:33;;;;;;;127.63;41.60;;;;;;;-9.22;100.00;100772.59;4946205;28;20027;-78
2022/12/16 01:18:59;;;;;;;119.57;42.15;;;;;;;-9.24;100.00;100770.09;4947013;28;20110;-78
2022/12/16 01:21:25;;;;;;;121.07;42.72;;;;;;;-9.23;100.00;100775.94;4947561;28;20445;-78
2022/12/16 01:23:50;;;;;;;135.80;44.13;;;;;;;-9.18;100.00;100773.34;4949381;28;20148;-80
2022/12/16 01:26:17;;;;;;;121.20;43.65;;;;;;;-9.17;100.00;100773.31;4958738;28;20035;-79
2022/12/16 01:28:42;;;;;;;136.38;41.60;;;;;;;-9.23;100.00;100776.78;4947812;28;20058;-77
2022/12/16 01:31:08;;;;;;;129.75;44.38;;;;;;;-9.27;100.00;100780.19;4947712;28;20039;-78
2022/12/16 01:33:33;;;;;;;121.57;41.60;;;;;;;-9.30;100.00;100784.47;4935736;28;20039;-78
2022/12/16 01:36:01;;;;;;;122.47;41.30;;;;;;;-9.32;100.00;100786.16;4942561;28;20782;-79
2022/12/16 01:38:26;;;;;;;136.00;43.30;;;;;;;-9.31;100.00;100783.63;4974929;28;20046;-77
2022/12/16 01:40:52;;;;;;;121.28;41.70;;;;;;;-9.32;100.00;100789.53;4946010;28;20035;-79
2022/12/16 01:43:21;;;;;;;128.63;43.10;;;;;;;-9.32;100.00;100793.69;4949093;28;20722;-77
2022/12/16 01:45:47;;;;;;;129.82;42.63;;;;;;;-9.34;100.00;100801.28;4945791;28;20037;-78
2022/12/16 01:48:24;;;;;;;134.02;43.53;;;;;;;-9.36;100.00;100802.16;4950994;28;20051;-77
2022/12/16 01:50:55;;;;;;;138.68;44.92;;;;;;;-9.29;100.00;100807.03;4943207;28;20119;-77
2022/12/16 01:53:21;;;;;;;123.25;41.38;;;;;;;-9.34;100.00;100793.75;4963339;28;20078;-77
2022/12/16 01:55:50;;;;;;;126.07;42.25;;;;;;;-9.35;100.00;100793.78;4944380;28;20035;-77
2022/12/16 01:58:22;;;;;;;132.02;43.55;;;;;;;-9.34;100.00;100797.94;4945507;28;20078;-79
2022/12/16 02:00:48;;;;;;;;;;;;;;;-9.24;100.00;100802.75;4952540;28;20095;-79
2022/12/16 02:03:15;;;;;;;126.00;39.63;;;;;;;-9.25;100.00;100806.13;4945657;28;20014;-78
2022/12/16 02:05:42;;;;;;;117.97;40.35;;;;;;;-9.33;100.00;100810.47;4948135;28;20469;-79
2022/12/16 02:08:14;;;;;;;123.93;40.10;;;;;;;-9.38;100.00;100806.38;4941257;28;20058;-77
2022/12/16 02:10:43;;;;;;;130.75;40.42;;;;;;;-9.44;100.00;100807.34;4930715;28;20053;-77
2022/12/16 02:13:23;;;;;;;135.65;43.97;;;;;;;-9.46;100.00;100806.53;4937851;28;20484;-78
2022/12/16 02:16:31;;;;;;;128.43;43.38;;;;;;;-9.44;100.00;100807.34;4945296;28;20031;-78
2022/12/16 02:19:27;;;;;;;133.48;44.03;;;;;;;-9.44;100.00;100802.31;4948061;28;20133;-77
2022/12/16 02:22:11;;;;;;;122.07;40.40;;;;;;;-9.45;100.00;100808.19;4949665;28;20035;-77
2022/12/16 02:25:14;;;;;;;125.18;42.20;;;;;;;-9.45;100.00;100818.25;4953955;28;20122;-78
2022/12/16 02:27:59;;;;;;;118.63;40.22;;;;;;;-9.46;100.00;100817.41;4948298;28;20043;-77
2022/12/16 02:30:50;;;;;;;120.80;41.05;;;;;;;-9.46;100.00;100812.38;4946969;28;20038;-77
2022/12/16 02:37:24;;;;;;;113.70;37.90;;;;;;;-9.49;100.00;100804.06;4949292;28;20053;-78
2022/12/16 02:39:54;;;;;;;116.20;38.53;;;;;;;-9.51;100.00;100811.66;4944462;28;20046;-79
2022/12/16 02:42:30;;;;;;;129.57;39.97;;;;;;;-9.51;100.00;100810.81;4953035;28;20030;-78
2022/12/16 02:45:00;;;;;;;113.22;41.15;;;;;;;-9.53;100.00;100807.50;4926020;29;20046;-78
2022/12/16 02:47:26;;;;;;;121.28;39.05;;;;;;;-9.53;100.00;100802.47;4924564;28;20035;-78
2022/12/16 02:49:53;;;;;;;129.45;40.58;;;;;;;-9.49;100.00;100804.06;4949663;28;20027;-78
2022/12/16 02:52:21;;;;;;;122.22;39.53;;;;;;;-9.51;100.00;100806.63;4941768;28;20042;-79
2022/12/16 02:54:50;;;;;;;117.05;37.75;;;;;;;-9.52;100.00;100811.69;4944053;28;20047;-78
2022/12/16 02:57:39;;;;;;;119.53;41.08;;;;;;;-9.53;100.00;100812.53;4962471;28;20134;-78
2022/12/16 03:00:11;;;;;;;132.25;40.58;;;;;;;-9.51;100.00;100810.81;4948016;28;20158;-80
2022/12/16 03:02:49;;;;;;;122.32;39.85;;;;;;;-9.52;100.00;100812.50;4947893;28;20045;-79
2022/12/16 03:05:27;;;;;;;114.25;38.42;;;;;;;-9.53;100.00;100810.00;4960215;28;20026;-78
2022/12/16 03:07:56;;;;;;;122.47;39.53;;;;;;;-9.56;100.00;100812.59;4946525;28;20400;-79
2022/12/16 03:10:27;;;;;;;115.80;38.65;;;;;;;-9.57;100.00;100805.91;4946851;28;20035;-78
2022/12/16 03:12:56;;;;;;;113.55;37.83;;;;;;;-9.57;100.00;100811.75;4943566;28;20043;-79
2022/12/16 03:15:25;;;;;;;112.30;38.88;;;;;;;-9.56;100.00;100818.44;4947687;28;20039;-77
2022/12/16 03:17:53;;;;;;;115.05;38.72;;;;;;;-9.56;100.00;100820.13;4946315;28;20043;-78
2022/12/16 03:20:30;;;;;;;115.00;38.83;;;;;;;-9.58;100.00;100820.16;4951922;28;20082;-80
2022/12/16 03:23:01;;;;;;;113.93;38.60;;;;;;;-9.59;100.00;100821.00;4947479;28;20070;-78
2022/12/16 03:25:30;;;;;;;115.60;38.60;;;;;;;-9.61;100.00;100818.50;4945188;28;20035;-78
2022/12/16 03:28:15;;;;;;;122.90;39.03;;;;;;;-9.62;100.00;100816.88;4944966;28;20043;-78
2022/12/16 03:30:46;;;;;;;114.07;39.00;;;;;;;-9.60;100.00;100814.34;4951877;28;20027;-79
2022/12/16 03:33:22;;;;;;;124.00;38.53;;;;;;;-9.58;100.00;100821.84;4979658;28;20071;-79
2022/12/16 03:35:52;;;;;;;108.10;38.63;;;;;;;-9.60;100.00;100814.34;4944835;28;20853;-79
2022/12/16 03:38:20;;;;;;;108.32;38.22;;;;;;;-9.59;100.00;100826.00;4946593;28;20429;-79
2022/12/16 03:40:47;;;;;;;134.60;40.05;;;;;;;-9.60;100.00;100830.22;4948208;28;20038;-79
2022/12/16 03:43:14;;;;;;;110.05;38.28;;;;;;;-9.60;100.00;100831.91;4946035;28;20095;-79
2022/12/16 03:45:44;;;;;;;114.00;37.90;;;;;;;-9.61;100.00;100833.56;4943804;28;20038;-77
2022/12/16 03:48:11;;;;;;;105.80;36.92;;;;;;;-9.60;100.00;100850.31;4950040;28;20614;-79
2022/12/16 03:50:38;;;;;;;114.25;38.97;;;;;;;-9.59;100.00;100851.13;4946055;28;20031;-77
2022/12/16 03:53:04;;;;;;;111.90;39.08;;;;;;;-9.60;100.00;100846.97;4946089;28;20050;-78
2022/12/16 03:55:30;;;;;;;121.40;39.40;;;;;;;-9.58;100.00;100850.28;4945087;28;20126;-78
2022/12/16 03:57:56;;;;;;;120.00;40.10;;;;;;;-9.57;100.00;100851.09;4944129;28;20043;-79
2022/12/16 04:00:22;;;;;;;121.82;40.63;;;;;;;-9.57;100.00;100846.06;4947685;28;20046;-79
2022/12/16 04:02:48;;;;;;;116.03;38.65;;;;;;;-9.62;100.00;100841.16;4944058;28;20046;-80
2022/12/16 04:05:14;;;;;;;123.75;38.95;;;;;;;-9.60;100.00;100847.78;4962322;28;20031;-79
2022/12/16 04:07:40;;;;;;;119.30;38.85;;;;;;;-9.63;100.00;100847.84;4946185;28;20036;-79
2022/12/16 04:10:06;;;;;;;132.00;38.42;;;;;;;-9.62;100.00;100844.47;4944700;28;20035;-78
2022/12/16 04:26:19;;;;;;;108.35;37.20;;;;;;;-9.61;100.00;100883.78;4948698;28;20090;-79
2022/12/16 04:28:44;;;;;;;118.00;38.55;;;;;;;-9.53;100.00;100882.81;4961900;28;20039;-79
2022/12/16 04:31:10;;;;;;;118.93;38.78;;;;;;;-9.54;100.00;100881.19;4949245;28;20070;-79
